This is the latest recevied weather packets stored in our database for station/object KC8JWT. If no packets are shown the sender has not sent any weather packets the latest 1 day(s).
| Time | Temp. | Humidity | Pressure | Rain* | Wind** | Luminosity | Snow |
|---|---|---|---|---|---|---|---|
| 1777960067 | 18.89° C | 67% | 1008.6 hPa | 0 mm | 1.79 m/s, 206° | 0 W/m² | - |
| 1777959765 | 18.89° C | 67% | 1008.5 hPa | 0 mm | 1.79 m/s, 224° | 0 W/m² | - |
| 1777959463 | 18.89° C | 68% | 1008.5 hPa | 0 mm | 2.68 m/s, 229° | 0 W/m² | - |
| 1777959159 | 18.89° C | 69% | 1008.7 hPa | 0 mm | 0.89 m/s, 149° | 0 W/m² | - |
| 1777958857 | 18.33° C | 69% | 1008.7 hPa | 0 mm | 0.89 m/s, 197° | 0 W/m² | - |
| 1777958553 | 18.33° C | 70% | 1008.5 hPa | 0 mm | 0.45 m/s, 150° | 0 W/m² | - |
| 1777958250 | 18.33° C | 70% | 1008.8 hPa | 0 mm | 1.34 m/s, 160° | 0 W/m² | - |
| 1777957949 | 18.33° C | 70% | 1008.7 hPa | 0 mm | 0.45 m/s, 170° | 0 W/m² | - |
| 1777957646 | 18.33° C | 70% | 1008.6 hPa | 0 mm | 0 m/s | 0 W/m² | - |
| 1777957344 | 18.33° C | 70% | 1008.6 hPa | 0 mm | 0.45 m/s, 154° | 0 W/m² | - |
| 1777957039 | 18.89° C | 70% | 1008.5 hPa | 0 mm | 0 m/s | 0 W/m² | - |
| 1777956738 | 18.33° C | 70% | 1008.4 hPa | 0 mm | 0.45 m/s, 156° | 0 W/m² | - |
| 1777956434 | 18.89° C | 70% | 1008.4 hPa | 0 mm | 0.45 m/s, 156° | 0 W/m² | - |
| 1777956130 | 18.89° C | 71% | 1008.6 hPa | 0 mm | 0.89 m/s, 146° | 0 W/m² | - |
| 1777955827 | 18.89° C | 70% | 1008.5 hPa | 0 mm | 0 m/s | 0 W/m² | - |
| 1777955524 | 18.89° C | 71% | 1008.5 hPa | 0 mm | 0.45 m/s, 147° | 0 W/m² | - |
| 1777955220 | 18.89° C | 71% | 1008.6 hPa | 0 mm | 0.89 m/s, 161° | 0 W/m² | - |
| 1777954917 | 18.33° C | 72% | 1008.6 hPa | 0 mm | 0.89 m/s, 182° | 0 W/m² | - |
| 1777954614 | 17.78° C | 75% | 1008.4 hPa | 0 mm | 0 m/s | 0 W/m² | - |
| 1777954311 | 16.67° C | 78% | 1008.4 hPa | 0 mm | 0.45 m/s, 151° | 0 W/m² | - |
| 1777954008 | 16.11° C | 82% | 1008.5 hPa | 0 mm | 0 m/s | 0 W/m² | - |
| 1777953706 | 15.56° C | 83% | 1008.2 hPa | 0 mm | 0 m/s | 0 W/m² | - |
| 1777953402 | 15.56° C | 84% | 1008.2 hPa | 0 mm | 0.45 m/s, 139° | 0 W/m² | - |
| 1777953098 | 15.56° C | 85% | 1008 hPa | 0 mm | 0 m/s | 0 W/m² | - |
| 1777952795 | 15.56° C | 85% | 1008.2 hPa | 0 mm | 0 m/s | 0 W/m² | - |
* Rain latest hour (hover to see other rain measurements)
** Current wind speed in m/s (hover to see current wind gust speed)